sensor_id;sensor_type;location;lat;lon;timestamp;pressure;altitude;pressure_sealevel;temperature;humidity
51928;BME280;37953;52.806;18.270;2023-03-25T00:00:48;99391.47;;;11.45;100.00
51928;BME280;37953;52.806;18.270;2023-03-25T00:03:20;99381.97;;;11.42;100.00
51928;BME280;37953;52.806;18.270;2023-03-25T00:05:48;99377.69;;;11.39;100.00
51928;BME280;37953;52.806;18.270;2023-03-25T00:08:14;99378.63;;;11.37;100.00
51928;BME280;37953;52.806;18.270;2023-03-25T00:10:41;99383.84;;;11.35;100.00
51928;BME280;37953;52.806;18.270;2023-03-25T00:13:07;99367.41;;;11.32;100.00
51928;BME280;37953;52.806;18.270;2023-03-25T00:15:33;99379.56;;;11.31;100.00
51928;BME280;37953;52.806;18.270;2023-03-25T00:17:59;99384.84;;;11.28;100.00
51928;BME280;37953;52.806;18.270;2023-03-25T00:20:27;99394.41;;;11.26;100.00
51928;BME280;37953;52.806;18.270;2023-03-25T00:22:52;99384.03;;;11.23;100.00
51928;BME280;37953;52.806;18.270;2023-03-25T00:25:19;99375.41;;;11.21;100.00
51928;BME280;37953;52.806;18.270;2023-03-25T00:27:45;99365.94;;;11.17;100.00
51928;BME280;37953;52.806;18.270;2023-03-25T00:30:15;99378.09;;;11.16;100.00
51928;BME280;37953;52.806;18.270;2023-03-25T00:32:41;99384.16;;;11.17;100.00
51928;BME280;37953;52.806;18.270;2023-03-25T00:35:10;99391.94;;;11.17;100.00
51928;BME280;37953;52.806;18.270;2023-03-25T00:40:14;99398.81;;;11.19;100.00
51928;BME280;37953;52.806;18.270;2023-03-25T00:42:40;99395.44;;;11.16;100.00
51928;BME280;37953;52.806;18.270;2023-03-25T00:45:10;99385.91;;;11.15;100.00
51928;BME280;37953;52.806;18.270;2023-03-25T00:47:36;99377.28;;;11.14;100.00
51928;BME280;37953;52.806;18.270;2023-03-25T00:50:02;99378.13;;;11.15;100.00
51928;BME280;37953;52.806;18.270;2023-03-25T00:52:28;99363.41;;;11.14;100.00
51928;BME280;37953;52.806;18.270;2023-03-25T00:54:54;99369.53;;;11.11;100.00
51928;BME280;37953;52.806;18.270;2023-03-25T00:57:20;99359.19;;;11.08;100.00
51928;BME280;37953;52.806;18.270;2023-03-25T00:59:46;99355.75;;;11.06;100.00
51928;BME280;37953;52.806;18.270;2023-03-25T01:02:12;99355.81;;;11.03;100.00
51928;BME280;37953;52.806;18.270;2023-03-25T01:04:38;99355.81;;;11.02;100.00
51928;BME280;37953;52.806;18.270;2023-03-25T01:07:04;99353.25;;;11.00;100.00
51928;BME280;37953;52.806;18.270;2023-03-25T01:09:30;99348.97;;;10.97;100.00
51928;BME280;37953;52.806;18.270;2023-03-25T01:11:56;99361.97;;;10.96;100.00
51928;BME280;37953;52.806;18.270;2023-03-25T01:14:22;99358.59;;;10.92;100.00
51928;BME280;37953;52.806;18.270;2023-03-25T01:16:48;99356.00;;;10.91;100.00
51928;BME280;37953;52.806;18.270;2023-03-25T01:19:14;99360.38;;;10.89;100.00
51928;BME280;37953;52.806;18.270;2023-03-25T01:21:40;99358.63;;;10.88;100.00
51928;BME280;37953;52.806;18.270;2023-03-25T01:24:06;99361.31;;;10.85;100.00
51928;BME280;37953;52.806;18.270;2023-03-25T01:26:33;99357.03;;;10.82;100.00
51928;BME280;37953;52.806;18.270;2023-03-25T01:28:59;99354.44;;;10.80;100.00
51928;BME280;37953;52.806;18.270;2023-03-25T01:31:25;99344.97;;;10.78;100.00
51928;BME280;37953;52.806;18.270;2023-03-25T01:33:57;99342.38;;;10.78;100.00
51928;BME280;37953;52.806;18.270;2023-03-25T01:36:26;99341.53;;;10.76;100.00
51928;BME280;37953;52.806;18.270;2023-03-25T01:38:54;99333.75;;;10.74;100.00
51928;BME280;37953;52.806;18.270;2023-03-25T01:41:21;99339.88;;;10.72;100.00
51928;BME280;37953;52.806;18.270;2023-03-25T01:46:28;99343.31;;;10.71;100.00
51928;BME280;37953;52.806;18.270;2023-03-25T01:48:53;99342.50;;;10.69;100.00
51928;BME280;37953;52.806;18.270;2023-03-25T01:51:21;99342.50;;;10.69;100.00
51928;BME280;37953;52.806;18.270;2023-03-25T01:53:48;99343.38;;;10.68;100.00
51928;BME280;37953;52.806;18.270;2023-03-25T01:56:17;99341.66;;;10.67;100.00
51928;BME280;37953;52.806;18.270;2023-03-25T01:58:43;99344.25;;;10.67;100.00
51928;BME280;37953;52.806;18.270;2023-03-25T02:01:16;99344.25;;;10.67;100.00
51928;BME280;37953;52.806;18.270;2023-03-25T02:03:42;99346.91;;;10.65;100.00
51928;BME280;37953;52.806;18.270;2023-03-25T02:09:15;99347.75;;;10.64;100.00
51928;BME280;37953;52.806;18.270;2023-03-25T02:11:42;99346.06;;;10.63;100.00
51928;BME280;37953;52.806;18.270;2023-03-25T02:14:18;99344.31;;;10.64;100.00
51928;BME280;37953;52.806;18.270;2023-03-25T02:19:39;99346.06;;;10.62;100.00
51928;BME280;37953;52.806;18.270;2023-03-25T02:22:31;99332.25;;;10.59;100.00
51928;BME280;37953;52.806;18.270;2023-03-25T02:40:20;99316.88;;;10.47;100.00
51928;BME280;37953;52.806;18.270;2023-03-25T02:45:40;99311.72;;;10.44;100.00
51928;BME280;37953;52.806;18.270;2023-03-25T02:50:56;99305.72;;;10.41;100.00
51928;BME280;37953;52.806;18.270;2023-03-25T02:53:25;99300.53;;;10.41;100.00
51928;BME280;37953;52.806;18.270;2023-03-25T02:55:52;99307.47;;;10.40;100.00
51928;BME280;37953;52.806;18.270;2023-03-25T02:58:24;99300.59;;;10.37;100.00
51928;BME280;37953;52.806;18.270;2023-03-25T03:00:52;99319.59;;;10.38;100.00
51928;BME280;37953;52.806;18.270;2023-03-25T03:03:18;99317.03;;;10.35;100.00
51928;BME280;37953;52.806;18.270;2023-03-25T03:05:44;99311.06;;;10.31;100.00
51928;BME280;37953;52.806;18.270;2023-03-25T03:21:17;99298.22;;;10.19;100.00
51928;BME280;37953;52.806;18.270;2023-03-25T03:23:56;99302.56;;;10.18;100.00
51928;BME280;37953;52.806;18.270;2023-03-25T03:26:25;99300.84;;;10.17;100.00
51928;BME280;37953;52.806;18.270;2023-03-25T03:31:24;99307.75;;;10.18;100.00
51928;BME280;37953;52.806;18.270;2023-03-25T03:33:55;99312.97;;;10.17;100.00
51928;BME280;37953;52.806;18.270;2023-03-25T03:36:26;99299.13;;;10.16;100.00
51928;BME280;37953;52.806;18.270;2023-03-25T03:39:05;99297.41;;;10.15;100.00
51928;BME280;37953;52.806;18.270;2023-03-25T03:41:35;99298.28;;;10.14;100.00
51928;BME280;37953;52.806;18.270;2023-03-25T03:44:03;99302.63;;;10.14;100.00
51928;BME280;37953;52.806;18.270;2023-03-25T03:48:58;99318.22;;;10.12;100.00
51928;BME280;37953;52.806;18.270;2023-03-25T03:51:37;99319.97;;;10.12;100.00
51928;BME280;37953;52.806;18.270;2023-03-25T03:54:06;99330.34;;;10.10;100.00
51928;BME280;37953;52.806;18.270;2023-03-25T03:56:43;99326.06;;;10.08;100.00
51928;BME280;37953;52.806;18.270;2023-03-25T03:59:16;99345.09;;;10.05;100.00
51928;BME280;37953;52.806;18.270;2023-03-25T04:01:55;99344.28;;;10.03;100.00
51928;BME280;37953;52.806;18.270;2023-03-25T04:04:23;99345.19;;;10.01;100.00
51928;BME280;37953;52.806;18.270;2023-03-25T04:09:23;99358.19;;;9.99;100.00
51928;BME280;37953;52.806;18.270;2023-03-25T04:12:25;99354.69;;;10.00;100.00
51928;BME280;37953;52.806;18.270;2023-03-25T04:15:02;99355.56;;;10.01;100.00
51928;BME280;37953;52.806;18.270;2023-03-25T04:17:30;99360.75;;;10.01;100.00
51928;BME280;37953;52.806;18.270;2023-03-25T04:20:00;99352.09;;;10.00;100.00
51928;BME280;37953;52.806;18.270;2023-03-25T04:22:30;99358.19;;;9.99;100.00
51928;BME280;37953;52.806;18.270;2023-03-25T04:24:56;99353.88;;;9.96;100.00
51928;BME280;37953;52.806;18.270;2023-03-25T04:27:24;99353.88;;;9.98;100.00
51928;BME280;37953;52.806;18.270;2023-03-25T04:29:54;99351.28;;;9.98;100.00
51928;BME280;37953;52.806;18.270;2023-03-25T04:32:22;99346.06;;;9.98;100.00
51928;BME280;37953;52.806;18.270;2023-03-25T04:34:48;99351.28;;;9.98;100.00
51928;BME280;37953;52.806;18.270;2023-03-25T04:37:25;99353.88;;;9.98;100.00
51928;BME280;37953;52.806;18.270;2023-03-25T04:39:51;99361.66;;;9.96;100.00
51928;BME280;37953;52.806;18.270;2023-03-25T04:42:24;99361.66;;;9.96;100.00
51928;BME280;37953;52.806;18.270;2023-03-25T04:45:00;99353.03;;;9.96;100.00
51928;BME280;37953;52.806;18.270;2023-03-25T04:47:25;99360.81;;;9.96;100.00
51928;BME280;37953;52.806;18.270;2023-03-25T04:49:52;99366.88;;;9.95;100.00
51928;BME280;37953;52.806;18.270;2023-03-25T04:52:17;99366.88;;;9.95;100.00
51928;BME280;37953;52.806;18.270;2023-03-25T04:54:43;99369.50;;;9.93;100.00
51928;BME280;37953;52.806;18.270;2023-03-25T04:57:09;99366.00;;;9.94;100.00
51928;BME280;37953;52.806;18.270;2023-03-25T04:59:35;99372.06;;;9.95;100.00
51928;BME280;37953;52.806;18.270;2023-03-25T05:02:01;99362.56;;;9.94;100.00
51928;BME280;37953;52.806;18.270;2023-03-25T05:04:30;99355.66;;;9.93;100.00
51928;BME280;37953;52.806;18.270;2023-03-25T05:06:58;99350.50;;;9.91;100.00
51928;BME280;37953;52.806;18.270;2023-03-25T05:09:24;99353.94;;;9.90;100.00
51928;BME280;37953;52.806;18.270;2023-03-25T05:11:51;99352.25;;;9.88;100.00
51928;BME280;37953;52.806;18.270;2023-03-25T05:14:18;99357.47;;;9.86;100.00
51928;BME280;37953;52.806;18.270;2023-03-25T05:16:44;99366.13;;;9.85;100.00
51928;BME280;37953;52.806;18.270;2023-03-25T05:19:10;99368.72;;;9.84;100.00
51928;BME280;37953;52.806;18.270;2023-03-25T05:21:37;99367.88;;;9.83;100.00
51928;BME280;37953;52.806;18.270;2023-03-25T05:24:06;99358.34;;;9.84;100.00
51928;BME280;37953;52.806;18.270;2023-03-25T05:26:39;99354.91;;;9.83;100.00
51928;BME280;37953;52.806;18.270;2023-03-25T05:29:11;99352.31;;;9.82;100.00
51928;BME280;37953;52.806;18.270;2023-03-25T05:31:44;99354.94;;;9.82;100.00
51928;BME280;37953;52.806;18.270;2023-03-25T05:34:11;99359.25;;;9.83;100.00
51928;BME280;37953;52.806;18.270;2023-03-25T05:36:42;99360.09;;;9.82;100.00
51928;BME280;37953;52.806;18.270;2023-03-25T05:39:08;99368.78;;;9.81;100.00
51928;BME280;37953;52.806;18.270;2023-03-25T05:41:35;99371.38;;;9.79;100.00
51928;BME280;37953;52.806;18.270;2023-03-25T05:44:05;99365.34;;;9.80;100.00
51928;BME280;37953;52.806;18.270;2023-03-25T05:46:30;99366.19;;;9.81;100.00
51928;BME280;37953;52.806;18.270;2023-03-25T05:48:56;99365.34;;;9.80;100.00
51928;BME280;37953;52.806;18.270;2023-03-25T05:51:25;99364.47;;;9.79;100.00
51928;BME280;37953;52.806;18.270;2023-03-25T05:53:51;99369.66;;;9.79;100.00
51928;BME280;37953;52.806;18.270;2023-03-25T05:56:18;99370.53;;;9.80;100.00
51928;BME280;37953;52.806;18.270;2023-03-25T05:58:45;99369.63;;;9.81;100.00
51928;BME280;37953;52.806;18.270;2023-03-25T06:01:10;99373.97;;;9.82;100.00
51928;BME280;37953;52.806;18.270;2023-03-25T06:03:39;99361.00;;;9.82;100.00
51928;BME280;37953;52.806;18.270;2023-03-25T06:06:06;99368.72;;;9.84;100.00
51928;BME280;37953;52.806;18.270;2023-03-25T06:08:52;99362.66;;;9.86;100.00
51928;BME280;37953;52.806;18.270;2023-03-25T06:11:18;99366.06;;;9.88;100.00
51928;BME280;37953;52.806;18.270;2023-03-25T06:13:46;99367.81;;;9.91;100.00
51928;BME280;37953;52.806;18.270;2023-03-25T06:16:19;99365.16;;;9.92;100.00
51928;BME280;37953;52.806;18.270;2023-03-25T06:18:46;99362.56;;;9.94;100.00
51928;BME280;37953;52.806;18.270;2023-03-25T06:21:24;99352.19;;;9.95;100.00
51928;BME280;37953;52.806;18.270;2023-03-25T06:23:51;99355.59;;;9.97;100.00
51928;BME280;37953;52.806;18.270;2023-03-25T06:26:18;99346.06;;;9.99;100.00
51928;BME280;37953;52.806;18.270;2023-03-25T06:28:45;99352.94;;;10.02;100.00
51928;BME280;37953;52.806;18.270;2023-03-25T06:31:14;99353.78;;;10.04;100.00
51928;BME280;37953;52.806;18.270;2023-03-25T06:33:45;99351.19;;;10.06;100.00
51928;BME280;37953;52.806;18.270;2023-03-25T06:36:11;99365.84;;;10.10;100.00
51928;BME280;37953;52.806;18.270;2023-03-25T06:41:07;99362.28;;;10.15;100.00
51928;BME280;37953;52.806;18.270;2023-03-25T06:43:33;99367.44;;;10.18;100.00
51928;BME280;37953;52.806;18.270;2023-03-25T06:45:59;99370.00;;;10.22;100.00
51928;BME280;37953;52.806;18.270;2023-03-25T06:48:25;99375.16;;;10.25;100.00
51928;BME280;37953;52.806;18.270;2023-03-25T06:50:51;99374.25;;;10.27;100.00
51928;BME280;37953;52.806;18.270;2023-03-25T06:53:17;99378.56;;;10.30;100.00
51928;BME280;37953;52.806;18.270;2023-03-25T06:55:43;99375.09;;;10.31;100.00
51928;BME280;37953;52.806;18.270;2023-03-25T06:58:10;99375.06;;;10.32;100.00
51928;BME280;37953;52.806;18.270;2023-03-25T07:00:36;99372.44;;;10.35;100.00
51928;BME280;37953;52.806;18.270;2023-03-25T07:03:02;99365.50;;;10.37;100.00
51928;BME280;37953;52.806;18.270;2023-03-25T07:05:28;99373.22;;;10.39;100.00
51928;BME280;37953;52.806;18.270;2023-03-25T07:07:54;99368.03;;;10.41;100.00
51928;BME280;37953;52.806;18.270;2023-03-25T07:10:19;99370.63;;;10.42;100.00
51928;BME280;37953;52.806;18.270;2023-03-25T07:12:46;99372.31;;;10.43;100.00
51928;BME280;37953;52.806;18.270;2023-03-25T07:15:12;99367.97;;;10.45;100.00
51928;BME280;37953;52.806;18.270;2023-03-25T07:17:38;99367.97;;;10.45;100.00
51928;BME280;37953;52.806;18.270;2023-03-25T07:20:04;99366.19;;;10.47;100.00
51928;BME280;37953;52.806;18.270;2023-03-25T07:22:31;99363.59;;;10.47;100.00
51928;BME280;37953;52.806;18.270;2023-03-25T07:24:58;99361.84;;;10.49;100.00
51928;BME280;37953;52.806;18.270;2023-03-25T07:27:26;99361.81;;;10.51;100.00
51928;BME280;37953;52.806;18.270;2023-03-25T07:29:52;99363.53;;;10.52;100.00
51928;BME280;37953;52.806;18.270;2023-03-25T07:32:18;99366.09;;;10.53;100.00
51928;BME280;37953;52.806;18.270;2023-03-25T07:34:44;99375.59;;;10.56;100.00
51928;BME280;37953;52.806;18.270;2023-03-25T07:37:10;99360.88;;;10.56;100.00
51928;BME280;37953;52.806;18.270;2023-03-25T07:39:36;99360.84;;;10.58;100.00
51928;BME280;37953;52.806;18.270;2023-03-25T07:42:01;99365.16;;;10.59;100.00
51928;BME280;37953;52.806;18.270;2023-03-25T07:44:27;99364.25;;;10.62;100.00
51928;BME280;37953;52.806;18.270;2023-03-25T07:46:53;99359.91;;;10.64;100.00
51928;BME280;37953;52.806;18.270;2023-03-25T07:49:19;99341.78;;;10.61;100.00
51928;BME280;37953;52.806;18.270;2023-03-25T07:51:45;99352.00;;;10.70;100.00
51928;BME280;37953;52.806;18.270;2023-03-25T07:54:11;99354.59;;;10.71;100.00
51928;BME280;37953;52.806;18.270;2023-03-25T07:56:37;99356.28;;;10.75;100.00
51928;BME280;37953;52.806;18.270;2023-03-25T07:59:03;99350.19;;;10.76;100.00
51928;BME280;37953;52.806;18.270;2023-03-25T08:01:29;99351.91;;;10.77;100.00
51928;BME280;37953;52.806;18.270;2023-03-25T08:03:56;99358.78;;;10.80;100.00
51928;BME280;37953;52.806;18.270;2023-03-25T08:06:22;99360.47;;;10.83;100.00
51928;BME280;37953;52.806;18.270;2023-03-25T08:08:48;99361.31;;;10.83;100.00
51928;BME280;37953;52.806;18.270;2023-03-25T08:11:14;99366.50;;;10.85;100.00
51928;BME280;37953;52.806;18.270;2023-03-25T08:13:40;99361.28;;;10.86;100.00
51928;BME280;37953;52.806;18.270;2023-03-25T08:16:12;99364.75;;;10.87;100.00
51928;BME280;37953;52.806;18.270;2023-03-25T08:18:38;99359.53;;;10.87;100.00
51928;BME280;37953;52.806;18.270;2023-03-25T08:21:05;99361.25;;;10.88;100.00
51928;BME280;37953;52.806;18.270;2023-03-25T08:23:31;99368.16;;;10.89;100.00
51928;BME280;37953;52.806;18.270;2023-03-25T08:26:01;99362.06;;;10.90;100.00
51928;BME280;37953;52.806;18.270;2023-03-25T08:28:27;99362.91;;;10.92;100.00
51928;BME280;37953;52.806;18.270;2023-03-25T08:30:53;99359.44;;;10.93;100.00
51928;BME280;37953;52.806;18.270;2023-03-25T08:33:20;99362.03;;;10.94;100.00
51928;BME280;37953;52.806;18.270;2023-03-25T08:35:46;99357.66;;;10.96;100.00
51928;BME280;37953;52.806;18.270;2023-03-25T08:38:12;99359.34;;;10.97;100.00
51928;BME280;37953;52.806;18.270;2023-03-25T08:40:53;99350.69;;;10.98;100.00
51928;BME280;37953;52.806;18.270;2023-03-25T08:43:19;99352.41;;;10.99;100.00
51928;BME280;37953;52.806;18.270;2023-03-25T08:45:46;99341.97;;;11.01;100.00
51928;BME280;37953;52.806;18.270;2023-03-25T08:48:12;99354.06;;;11.02;100.00
51928;BME280;37953;52.806;18.270;2023-03-25T08:50:38;99339.34;;;11.03;100.00
51928;BME280;37953;52.806;18.270;2023-03-25T08:53:04;99341.06;;;11.04;100.00
51928;BME280;37953;52.806;18.270;2023-03-25T08:55:30;99337.56;;;11.05;100.00
51928;BME280;37953;52.806;18.270;2023-03-25T08:57:56;99346.19;;;11.07;100.00
51928;BME280;37953;52.806;18.270;2023-03-25T09:00:25;99344.44;;;11.09;100.00
51928;BME280;37953;52.806;18.270;2023-03-25T09:02:51;99340.97;;;11.10;100.00
51928;BME280;37953;52.806;18.270;2023-03-25T09:05:17;99339.19;;;11.12;100.00
51928;BME280;37953;52.806;18.270;2023-03-25T09:07:44;99341.78;;;11.13;100.00
51928;BME280;37953;52.806;18.270;2023-03-25T09:10:10;99340.84;;;11.16;100.00
51928;BME280;37953;52.806;18.270;2023-03-25T09:12:37;99339.09;;;11.18;100.00
51928;BME280;37953;52.806;18.270;2023-03-25T09:15:03;99336.44;;;11.19;100.00
51928;BME280;37953;52.806;18.270;2023-03-25T09:17:29;99336.41;;;11.23;100.00
51928;BME280;37953;52.806;18.270;2023-03-25T09:19:55;99327.69;;;11.25;100.00
51928;BME280;37953;52.806;18.270;2023-03-25T09:22:21;99331.94;;;11.29;100.00
51928;BME280;37953;52.806;18.270;2023-03-25T09:24:47;99328.41;;;11.32;100.00
51928;BME280;37953;52.806;18.270;2023-03-25T09:27:13;99325.78;;;11.35;100.00
51928;BME280;37953;52.806;18.270;2023-03-25T09:29:38;99323.97;;;11.38;100.00
51928;BME280;37953;52.806;18.270;2023-03-25T09:32:05;99323.06;;;11.41;100.00
51928;BME280;37953;52.806;18.270;2023-03-25T09:34:31;99323.84;;;11.45;100.00
51928;BME280;37953;52.806;18.270;2023-03-25T09:36:57;99319.44;;;11.48;100.00
51928;BME280;37953;52.806;18.270;2023-03-25T09:39:23;99328.09;;;11.50;100.00
51928;BME280;37953;52.806;18.270;2023-03-25T09:44:34;99338.38;;;11.56;100.00
51928;BME280;37953;52.806;18.270;2023-03-25T09:47:02;99338.28;;;11.61;100.00
51928;BME280;37953;52.806;18.270;2023-03-25T09:49:41;99335.63;;;11.64;100.00
51928;BME280;37953;52.806;18.270;2023-03-25T09:52:11;99337.25;;;11.68;100.00
51928;BME280;37953;52.806;18.270;2023-03-25T09:54:39;99342.44;;;11.70;100.00
51928;BME280;37953;52.806;18.270;2023-03-25T09:57:13;99351.06;;;11.72;100.00
51928;BME280;37953;52.806;18.270;2023-03-25T09:59:49;99344.13;;;11.72;100.00
51928;BME280;37953;52.806;18.270;2023-03-25T10:09:55;99338.88;;;11.75;100.00
51928;BME280;37953;52.806;18.270;2023-03-25T10:12:43;99341.47;;;11.75;100.00
51928;BME280;37953;52.806;18.270;2023-03-25T10:15:13;99339.72;;;11.76;100.00
51928;BME280;37953;52.806;18.270;2023-03-25T10:20:39;99331.94;;;11.74;100.00
51928;BME280;37953;52.806;18.270;2023-03-25T10:25:35;99332.84;;;11.72;100.00
51928;BME280;37953;52.806;18.270;2023-03-25T10:28:03;99327.66;;;11.72;100.00
51928;BME280;37953;52.806;18.270;2023-03-25T10:30:31;99327.66;;;11.72;100.00
51928;BME280;37953;52.806;18.270;2023-03-25T10:33:07;99325.06;;;11.70;
51928;BME280;37953;52.806;18.270;2023-03-25T10:35:39;99319.03;;;11.70;100.00
51928;BME280;37953;52.806;18.270;2023-03-25T10:38:14;99325.97;;;11.69;100.00
51928;BME280;37953;52.806;18.270;2023-03-25T10:40:44;99330.34;;;11.69;100.00
51928;BME280;37953;52.806;18.270;2023-03-25T10:45:56;99328.59;;;11.68;100.00
51928;BME280;37953;52.806;18.270;2023-03-25T10:48:26;99325.16;;;11.66;100.00
51928;BME280;37953;52.806;18.270;2023-03-25T10:51:38;99310.50;;;11.63;100.00
51928;BME280;37953;52.806;18.270;2023-03-25T10:53:39;99315.75;;;11.60;100.00
51928;BME280;37953;52.806;18.270;2023-03-25T10:56:18;99312.34;;;11.58;100.00
51928;BME280;37953;52.806;18.270;2023-03-25T10:58:48;99312.34;;;11.56;100.00
51928;BME280;37953;52.806;18.270;2023-03-25T11:01:19;99303.72;;;11.56;100.00
51928;BME280;37953;52.806;18.270;2023-03-25T11:03:49;99296.78;;;11.53;100.00
51928;BME280;37953;52.806;18.270;2023-03-25T11:06:26;99298.56;;;11.53;100.00
51928;BME280;37953;52.806;18.270;2023-03-25T11:09:04;99300.31;;;11.51;100.00
51928;BME280;37953;52.806;18.270;2023-03-25T11:11:40;99302.94;;;11.51;100.00
51928;BME280;37953;52.806;18.270;2023-03-25T11:14:06;99303.78;;;11.51;100.00
51928;BME280;37953;52.806;18.270;2023-03-25T11:16:33;99293.38;;;11.51;100.00
51928;BME280;37953;52.806;18.270;2023-03-25T11:19:05;99297.69;;;11.52;100.00
51928;BME280;37953;52.806;18.270;2023-03-25T11:21:37;99287.28;;;11.54;100.00
51928;BME280;37953;52.806;18.270;2023-03-25T11:24:04;99285.50;;;11.56;100.00
51928;BME280;37953;52.806;18.270;2023-03-25T11:26:37;99276.78;;;11.57;100.00
51928;BME280;37953;52.806;18.270;2023-03-25T11:29:12;99279.34;;;11.60;100.00
51928;BME280;37953;52.806;18.270;2023-03-25T11:31:39;99279.28;;;11.61;100.00
51928;BME280;37953;52.806;18.270;2023-03-25T11:36:54;99275.81;;;11.64;100.00
51928;BME280;37953;52.806;18.270;2023-03-25T11:41:49;99272.22;;;11.68;100.00
51928;BME280;37953;52.806;18.270;2023-03-25T11:44:28;99269.59;;;11.70;100.00
51928;BME280;37953;52.806;18.270;2023-03-25T11:47:08;99269.53;;;11.73;100.00
51928;BME280;37953;52.806;18.270;2023-03-25T11:49:35;99261.63;;;11.77;100.00
51928;BME280;37953;52.806;18.270;2023-03-25T11:52:13;99258.91;;;11.84;100.00
51928;BME280;37953;52.806;18.270;2023-03-25T11:54:40;99257.84;;;11.94;100.00
51928;BME280;37953;52.806;18.270;2023-03-25T11:57:10;99262.84;;;12.03;100.00
51928;BME280;37953;52.806;18.270;2023-03-25T11:59:44;99247.00;;;12.12;100.00
51928;BME280;37953;52.806;18.270;2023-03-25T12:07:27;99231.47;;;12.45;100.00
51928;BME280;37953;52.806;18.270;2023-03-25T12:09:55;99234.75;;;12.53;100.00
51928;BME280;37953;52.806;18.270;2023-03-25T12:25:18;99245.16;;;12.53;100.00
51928;BME280;37953;52.806;18.270;2023-03-25T12:30:47;99230.22;;;12.60;100.00
51928;BME280;37953;52.806;18.270;2023-03-25T13:02:10;99290.91;;;11.87;100.00
51928;BME280;37953;52.806;18.270;2023-03-25T13:07:08;99281.91;;;11.61;100.00
51928;BME280;37953;52.806;18.270;2023-03-25T13:12:27;99263.16;;;11.46;100.00
51928;BME280;37953;52.806;18.270;2023-03-25T13:14:59;99259.78;;;11.40;100.00
51928;BME280;37953;52.806;18.270;2023-03-25T13:17:28;99249.47;;;11.37;100.00
51928;BME280;37953;52.806;18.270;2023-03-25T13:19:58;99231.22;;;11.39;100.00
51928;BME280;37953;52.806;18.270;2023-03-25T13:22:28;99225.09;;;11.41;100.00
51928;BME280;37953;52.806;18.270;2023-03-25T13:25:00;99224.16;;;11.46;100.00
51928;BME280;37953;52.806;18.270;2023-03-25T13:27:39;99219.72;;;11.49;100.00
51928;BME280;37953;52.806;18.270;2023-03-25T13:30:11;99208.38;;;11.53;100.00
51928;BME280;37953;52.806;18.270;2023-03-25T13:32:49;99204.91;;;11.54;100.00
51928;BME280;37953;52.806;18.270;2023-03-25T13:35:41;99192.72;;;11.56;100.00
51928;BME280;37953;52.806;18.270;2023-03-25T13:38:08;99192.69;;;11.58;100.00
51928;BME280;37953;52.806;18.270;2023-03-25T13:40:50;99182.28;;;11.58;100.00
51928;BME280;37953;52.806;18.270;2023-03-25T13:46:09;99182.28;;;11.58;100.00
51928;BME280;37953;52.806;18.270;2023-03-25T13:51:06;99170.97;;;11.59;100.00
51928;BME280;37953;52.806;18.270;2023-03-25T13:53:47;99177.94;;;11.58;100.00
51928;BME280;37953;52.806;18.270;2023-03-25T14:14:35;99190.81;;;12.04;100.00
51928;BME280;37953;52.806;18.270;2023-03-25T14:17:02;99186.28;;;12.12;100.00
51928;BME280;37953;52.806;18.270;2023-03-25T14:19:36;99194.78;;;12.18;100.00
51928;BME280;37953;52.806;18.270;2023-03-25T14:22:16;99194.72;;;12.21;100.00
51928;BME280;37953;52.806;18.270;2023-03-25T14:24:43;99188.59;;;12.24;100.00
51928;BME280;37953;52.806;18.270;2023-03-25T14:27:22;99198.97;;;12.26;100.00
51928;BME280;37953;52.806;18.270;2023-03-25T14:32:33;99197.22;;;12.26;100.00
51928;BME280;37953;52.806;18.270;2023-03-25T14:37:44;99196.31;;;12.27;100.00
51928;BME280;37953;52.806;18.270;2023-03-25T14:42:57;99205.00;;;12.28;100.00
51928;BME280;37953;52.806;18.270;2023-03-25T14:48:04;99198.88;;;12.29;100.00
51928;BME280;37953;52.806;18.270;2023-03-25T14:50:35;99213.63;;;12.30;100.00
51928;BME280;37953;52.806;18.270;2023-03-25T14:53:09;99206.66;;;12.30;100.00
51928;BME280;37953;52.806;18.270;2023-03-25T14:55:40;99202.31;;;12.29;100.00
51928;BME280;37953;52.806;18.270;2023-03-25T15:00:49;99193.63;;;12.30;100.00
51928;BME280;37953;52.806;18.270;2023-03-25T15:03:16;99194.50;;;12.29;100.00
51928;BME280;37953;52.806;18.270;2023-03-25T15:05:43;99198.03;;;12.28;100.00
51928;BME280;37953;52.806;18.270;2023-03-25T15:08:24;99207.59;;;12.28;100.00
51928;BME280;37953;52.806;18.270;2023-03-25T15:11:07;99204.09;;;12.29;100.00
51928;BME280;37953;52.806;18.270;2023-03-25T15:13:34;99204.09;;;12.29;100.00
51928;BME280;37953;52.806;18.270;2023-03-25T15:21:14;99229.34;;;12.25;100.00
51928;BME280;37953;52.806;18.270;2023-03-25T15:26:13;99234.66;;;12.20;100.00
51928;BME280;37953;52.806;18.270;2023-03-25T15:31:28;99228.09;;;12.04;100.00
51928;BME280;37953;52.806;18.270;2023-03-25T15:34:12;99224.84;;;11.96;100.00
51928;BME280;37953;52.806;18.270;2023-03-25T15:44:39;99225.22;;;11.76;100.00
51928;BME280;37953;52.806;18.270;2023-03-25T15:50:12;99221.88;;;11.71;100.00
51928;BME280;37953;52.806;18.270;2023-03-25T15:55:19;99213.28;;;11.67;100.00
51928;BME280;37953;52.806;18.270;2023-03-25T15:57:55;99217.63;;;11.67;100.00
51928;BME280;37953;52.806;18.270;2023-03-25T16:00:25;99225.47;;;11.65;100.00
51928;BME280;37953;52.806;18.270;2023-03-25T16:05:18;99228.91;;;11.67;100.00
51928;BME280;37953;52.806;18.270;2023-03-25T16:07:51;99218.50;;;11.67;100.00
51928;BME280;37953;52.806;18.270;2023-03-25T16:10:17;99225.38;;;11.68;100.00